Airfield :
LOGIN :

Register | Disclaimer

   EN    FR    IT 

 










Legend :    VFR   Marginal VFR   IFR   Intensive IFR   Very Intensive IFR
Visi :
Ceiling :
>= 8 km
>= 3000ft
5 to 8 km
1000 to 3000 ft
1500m to 5 km
500 to 1000 ft
800 to 1500m
200 to 500 ft
< 800m
< 200 ft
Symbols :   Thunderstorms  Fog  Heavy snow  Heavy precipitations  Wind > 20 kt
SIGMETs :     Misc.  Thunderstorms  Icing  Turbulence  Mountain Waves  Volcanic Ashes






- Airport Elevation : 93 ft
- IATA code : XRY


LEJR - Jerez

CURRENT METAR :
  • 170630Z 09002KT CAVOK 17/16 Q1015

EXPIRED METARs :
  • 170600Z 06002KT CAVOK 17/16 Q1015
  • 170530Z 04001KT CAVOK 17/16 Q1015
  • 170500Z 04002KT CAVOK 16/16 Q1015
  • 170430Z 08003KT CAVOK 17/16 Q1015
  • 170400Z 04002KT CAVOK 17/16 Q1015

TAF TAF LEJR
Valid from the 17 at 03:00 until the 18 at 03:00 UTC


170200Z 1703/1803 VRB02KT CAVOK TX31/1714Z TN16/1706Z
PROB40
TEMPO 1704/1708 4000 BR
BECMG 1712/1714 27010KT
BECMG 1719/1721 VRB02KT



MET'MAP, your aeronautical weather chart ! - Copyright ORBIFLY December 2007 - Disclaimer

ORBIFLY MET'MAP TEAM :

Programming & Development : Alexandra Zaïnal
Concept & original design : Baudouin d'Aumeries
Assistance for programming : Marc-Olivier Méhu
Technical & hardware support : Manuel Goepfert

Contact : metmap@orbifly.com




SOURCES & CREDITS :

   NOAA